createdAt,value
2023-04-02T00:01:48.170Z,3.28
2023-04-02T00:06:54.942Z,2.92
2023-04-02T00:11:57.564Z,3.10
2023-04-02T00:17:02.202Z,3.35
2023-04-02T00:22:09.250Z,3.20
2023-04-02T00:27:13.975Z,3.33
2023-04-02T00:32:41.282Z,3.00
2023-04-02T00:37:44.363Z,3.88
2023-04-02T00:42:48.123Z,3.72
2023-04-02T00:47:50.948Z,4.10
2023-04-02T00:52:54.581Z,4.40
2023-04-02T00:57:59.142Z,5.00
2023-04-02T01:03:28.915Z,4.78
2023-04-02T01:08:46.150Z,4.40
2023-04-02T01:14:18.378Z,5.80
2023-04-02T01:19:50.446Z,4.70
2023-04-02T01:24:58.038Z,4.57
2023-04-02T01:30:01.748Z,3.72
2023-04-02T01:35:03.774Z,4.53
2023-04-02T01:40:34.605Z,5.03
2023-04-02T01:45:36.891Z,4.97
2023-04-02T01:50:41.669Z,4.53
2023-04-02T01:55:50.685Z,4.30
2023-04-02T02:00:58.576Z,4.22
2023-04-02T02:06:02.376Z,5.10
2023-04-02T02:11:05.692Z,4.47
2023-04-02T02:16:14.842Z,4.28
2023-04-02T02:21:43.751Z,4.45
2023-04-02T02:26:48.541Z,4.15
2023-04-02T02:31:54.567Z,4.40
2023-04-02T02:37:06.639Z,4.70
2023-04-02T02:42:18.537Z,5.00
2023-04-02T02:47:25.064Z,4.82
2023-04-02T02:52:38.291Z,4.72
2023-04-02T02:58:15.704Z,5.32
2023-04-02T03:03:34.315Z,5.13
2023-04-02T03:09:22.853Z,5.65
2023-04-02T03:14:48.868Z,4.45
2023-04-02T03:20:32.407Z,4.68
2023-04-02T03:25:47.244Z,5.10
2023-04-02T03:31:01.434Z,4.75
2023-04-02T03:36:15.468Z,4.80
2023-04-02T03:41:31.983Z,5.30
2023-04-02T03:46:40.910Z,4.93
2023-04-02T03:52:02.994Z,4.43
2023-04-02T03:57:10.201Z,5.20
2023-04-02T04:02:45.394Z,5.25
2023-04-02T04:07:52.253Z,6.82
2023-04-02T04:13:01.287Z,8.35
2023-04-02T04:18:19.450Z,8.45
2023-04-02T04:23:30.520Z,9.15
2023-04-02T04:28:45.890Z,9.88
2023-04-02T04:33:54.810Z,10.10
2023-04-02T04:39:05.663Z,10.40
2023-04-02T04:44:19.357Z,10.52
2023-04-02T04:49:31.548Z,9.90
2023-04-02T04:54:39.238Z,7.93
2023-04-02T04:59:47.711Z,8.70
2023-04-02T05:04:52.160Z,7.28
2023-04-02T05:09:58.780Z,6.85
2023-04-02T05:15:10.743Z,7.15
2023-04-02T05:20:17.198Z,6.82
2023-04-02T05:25:27.138Z,6.35
2023-04-02T05:30:52.804Z,7.50
2023-04-02T05:36:11.779Z,6.60
2023-04-02T05:41:27.167Z,6.65
2023-04-02T05:46:36.118Z,6.28
2023-04-02T05:51:44.038Z,6.22
2023-04-02T05:56:50.395Z,6.60
2023-04-02T06:02:20.470Z,6.82
2023-04-02T06:07:27.103Z,7.38
2023-04-02T06:12:44.631Z,7.47
2023-04-02T06:17:51.818Z,7.63
2023-04-02T06:23:18.966Z,6.40
2023-04-02T06:28:30.746Z,6.85
2023-04-02T06:33:32.441Z,7.18
2023-04-02T06:38:36.180Z,7.13
2023-04-02T06:43:43.936Z,6.38
2023-04-02T06:49:14.780Z,6.15
2023-04-02T06:54:18.058Z,6.72
2023-04-02T06:59:23.610Z,6.60
2023-04-02T07:04:26.115Z,5.88
2023-04-02T07:09:28.766Z,6.90
2023-04-02T07:14:34.061Z,5.07
2023-04-02T07:19:35.796Z,4.03
2023-04-02T07:24:37.496Z,3.85
2023-04-02T07:29:44.986Z,4.35
2023-04-02T07:34:47.187Z,4.88
2023-04-02T07:39:49.021Z,6.43
2023-04-02T07:44:51.279Z,6.95
2023-04-02T07:49:54.570Z,9.30
2023-04-02T07:54:56.449Z,10.13
2023-04-02T07:59:58.050Z,10.80
2023-04-02T08:04:59.672Z,10.55
2023-04-02T08:10:01.826Z,12.43
2023-04-02T08:15:05.876Z,11.88
2023-04-02T08:20:07.990Z,12.32
2023-04-02T08:25:09.888Z,11.55
2023-04-02T08:30:12.977Z,12.10
2023-04-02T08:35:16.429Z,11.70
2023-04-02T08:40:40.692Z,10.80
2023-04-02T08:45:55.709Z,9.35
2023-04-02T08:50:58.926Z,8.85
2023-04-02T08:56:25.285Z,7.50
2023-04-02T09:01:47.269Z,7.45
2023-04-02T09:06:52.435Z,6.38
2023-04-02T09:12:00.722Z,5.68
2023-04-02T09:17:04.466Z,6.68
2023-04-02T09:22:22.796Z,6.60
2023-04-02T09:27:27.648Z,6.80
2023-04-02T09:32:44.501Z,6.43
2023-04-02T09:37:47.645Z,6.82
2023-04-02T09:42:49.388Z,5.32
2023-04-02T09:47:54.004Z,5.38
2023-04-02T09:52:55.935Z,5.50
2023-04-02T09:58:18.530Z,4.95
2023-04-02T10:03:27.874Z,5.65
2023-04-02T10:08:30.976Z,6.05
2023-04-02T10:13:51.000Z,5.80
2023-04-02T10:18:58.189Z,5.55
2023-04-02T10:24:00.038Z,5.95
2023-04-02T10:29:41.561Z,5.57
2023-04-02T10:34:58.761Z,5.22
2023-04-02T10:40:12.969Z,5.07
2023-04-02T10:45:36.804Z,4.90
2023-04-02T10:50:38.718Z,4.95
2023-04-02T10:56:10.023Z,4.88
2023-04-02T11:01:17.369Z,5.38
2023-04-02T11:06:23.777Z,5.25
2023-04-02T11:11:30.497Z,4.80
2023-04-02T11:16:33.586Z,4.53
2023-04-02T11:21:55.060Z,4.95
2023-04-02T11:27:11.668Z,4.05
2023-04-02T11:32:25.133Z,5.35
2023-04-02T11:37:41.095Z,4.63
2023-04-02T11:42:49.974Z,5.05
2023-04-02T11:48:08.453Z,4.82
2023-04-02T11:53:16.917Z,5.45
2023-04-02T11:58:48.006Z,4.97
2023-04-02T12:04:07.475Z,5.10
2023-04-02T12:09:36.749Z,5.22
2023-04-02T12:14:38.336Z,4.22
2023-04-02T12:19:40.286Z,4.75
2023-04-02T12:24:42.206Z,4.35
2023-04-02T12:29:43.820Z,4.78
2023-04-02T12:34:46.572Z,4.78
2023-04-02T12:39:53.642Z,4.75
2023-04-02T12:44:55.508Z,4.90
2023-04-02T12:49:59.577Z,5.10
2023-04-02T12:55:03.760Z,4.97
2023-04-02T13:00:21.042Z,4.95
2023-04-02T13:05:44.228Z,4.65
2023-04-02T13:10:51.915Z,5.22
2023-04-02T13:16:20.357Z,5.70
2023-04-02T13:21:28.554Z,5.05
2023-04-02T13:26:30.693Z,5.18
2023-04-02T13:31:33.421Z,6.00
2023-04-02T13:36:35.652Z,4.68
2023-04-02T13:41:43.625Z,4.95
2023-04-02T13:46:45.503Z,5.32
2023-04-02T13:51:52.709Z,5.18
2023-04-02T13:56:56.033Z,5.38
2023-04-02T14:02:21.859Z,5.03
2023-04-02T14:07:32.866Z,5.20
2023-04-02T14:12:45.590Z,5.07
2023-04-02T14:18:05.537Z,5.07
2023-04-02T14:23:07.385Z,5.15
2023-04-02T14:28:42.766Z,5.10
2023-04-02T14:33:56.839Z,4.90
2023-04-02T14:39:17.802Z,4.88
2023-04-02T14:44:23.862Z,4.15
2023-04-02T14:49:32.719Z,4.60
2023-04-02T14:54:43.772Z,5.57
2023-04-02T15:00:04.669Z,4.32
2023-04-02T15:05:14.676Z,4.18
2023-04-02T15:10:30.981Z,4.78
2023-04-02T15:15:41.933Z,5.03
2023-04-02T15:21:08.582Z,4.93
2023-04-02T15:26:22.431Z,4.28
2023-04-02T15:31:27.932Z,4.40
2023-04-02T15:36:36.952Z,4.70
2023-04-02T15:41:57.589Z,4.53
2023-04-02T15:47:22.510Z,4.03
2023-04-02T15:52:38.644Z,4.38
2023-04-02T15:57:53.281Z,4.22
2023-04-02T16:03:07.284Z,3.78
2023-04-02T16:08:18.101Z,3.97
2023-04-02T16:13:33.792Z,3.97
2023-04-02T16:18:47.785Z,4.05
2023-04-02T16:23:50.571Z,4.45
2023-04-02T16:29:19.530Z,4.03
2023-04-02T16:34:33.274Z,4.35
2023-04-02T16:40:09.394Z,4.20
2023-04-02T16:45:14.048Z,4.53
2023-04-02T16:50:38.246Z,4.55
2023-04-02T16:55:49.339Z,4.80
2023-04-02T17:00:57.966Z,5.00
2023-04-02T17:06:19.530Z,4.60
2023-04-02T17:11:32.898Z,4.43
2023-04-02T17:16:37.768Z,4.38
2023-04-02T17:21:45.280Z,4.28
2023-04-02T17:27:13.944Z,3.92
2023-04-02T17:32:26.116Z,4.80
2023-04-02T17:37:58.628Z,4.22
2023-04-02T17:43:48.116Z,4.82
2023-04-02T17:49:00.707Z,4.63
2023-04-02T17:54:19.364Z,4.63
2023-04-02T17:59:55.411Z,4.63
2023-04-02T18:04:57.316Z,4.45
2023-04-02T18:10:07.905Z,4.78
2023-04-02T18:15:12.907Z,5.22
2023-04-02T18:20:27.830Z,5.25
2023-04-02T18:25:42.858Z,5.13
2023-04-02T18:30:59.985Z,4.25
2023-04-02T18:36:18.431Z,5.13
2023-04-02T18:41:20.273Z,4.93
2023-04-02T18:46:25.078Z,4.95
2023-04-02T18:51:33.976Z,5.10
2023-04-02T18:56:39.546Z,6.03
2023-04-02T19:01:46.703Z,5.00
2023-04-02T19:06:57.571Z,4.88
2023-04-02T19:11:59.235Z,4.97
2023-04-02T19:17:06.846Z,5.05
2023-04-02T19:22:39.572Z,5.30
2023-04-02T19:27:51.425Z,5.93
2023-04-02T19:33:17.625Z,5.50
2023-04-02T19:38:57.036Z,5.53
2023-04-02T19:43:58.874Z,4.47
2023-04-02T19:49:14.676Z,5.50
2023-04-02T19:54:16.332Z,4.38
2023-04-02T19:59:18.910Z,4.35
2023-04-02T20:04:20.721Z,4.57
2023-04-02T20:09:22.603Z,4.07
2023-04-02T20:14:24.216Z,4.05
2023-04-02T20:19:26.002Z,4.05
2023-04-02T20:24:27.754Z,4.35
2023-04-02T20:29:31.745Z,4.70
2023-04-02T20:34:33.418Z,3.97
2023-04-02T20:39:35.102Z,5.22
2023-04-02T20:44:37.753Z,4.53
2023-04-02T20:49:39.375Z,5.70
2023-04-02T20:54:41.131Z,5.07
2023-04-02T20:59:42.735Z,6.28
2023-04-02T21:04:44.394Z,5.15
2023-04-02T21:09:46.018Z,5.40
2023-04-02T21:14:48.608Z,5.00
2023-04-02T21:19:50.272Z,4.90
2023-04-02T21:24:51.919Z,4.75
2023-04-02T21:29:53.569Z,5.00
2023-04-02T21:34:55.385Z,4.88
2023-04-02T21:39:57.022Z,4.90
2023-04-02T21:44:58.704Z,5.25
2023-04-02T21:50:00.297Z,5.18
2023-04-02T21:55:02.004Z,4.97
2023-04-02T22:00:08.284Z,4.13
2023-04-02T22:05:09.969Z,4.53
2023-04-02T22:10:11.620Z,4.05
2023-04-02T22:15:13.225Z,3.83
2023-04-02T22:20:15.251Z,3.80
2023-04-02T22:25:17.424Z,4.03
2023-04-02T22:30:19.064Z,3.70
2023-04-02T22:35:20.788Z,3.85
2023-04-02T22:40:22.379Z,4.03
2023-04-02T22:45:24.026Z,3.65
2023-04-02T22:50:25.894Z,3.75
2023-04-02T22:55:27.597Z,3.42
2023-04-02T23:00:29.292Z,3.20
2023-04-02T23:05:31.205Z,3.47
2023-04-02T23:10:35.404Z,3.33
2023-04-02T23:15:37.316Z,3.30
2023-04-02T23:20:40.668Z,3.42
2023-04-02T23:25:43.061Z,3.20
2023-04-02T23:30:44.728Z,3.63
2023-04-02T23:35:46.386Z,3.63
2023-04-02T23:40:48.137Z,3.45
2023-04-02T23:45:50.507Z,3.25
2023-04-02T23:50:52.149Z,3.20
2023-04-02T23:55:53.903Z,3.20
